sensor_id;sensor_type;location;lat;lon;timestamp;P1;durP1;ratioP1;P2;durP2;ratioP2
48207;SDS011;33997;53.278;9.708;2023-08-17T00:01:20;5.97;;;1.70;;
48207;SDS011;33997;53.278;9.708;2023-08-17T00:03:46;5.63;;;1.80;;
48207;SDS011;33997;53.278;9.708;2023-08-17T00:06:11;5.78;;;1.73;;
48207;SDS011;33997;53.278;9.708;2023-08-17T00:08:37;4.95;;;1.65;;
48207;SDS011;33997;53.278;9.708;2023-08-17T00:11:02;8.18;;;1.90;;
48207;SDS011;33997;53.278;9.708;2023-08-17T00:13:28;6.30;;;1.95;;
48207;SDS011;33997;53.278;9.708;2023-08-17T00:15:54;7.15;;;1.70;;
48207;SDS011;33997;53.278;9.708;2023-08-17T00:18:19;4.38;;;1.55;;
48207;SDS011;33997;53.278;9.708;2023-08-17T00:20:44;4.80;;;1.65;;
48207;SDS011;33997;53.278;9.708;2023-08-17T00:23:10;7.20;;;2.20;;
48207;SDS011;33997;53.278;9.708;2023-08-17T00:25:35;7.90;;;2.00;;
48207;SDS011;33997;53.278;9.708;2023-08-17T00:28:01;3.92;;;1.70;;
48207;SDS011;33997;53.278;9.708;2023-08-17T00:30:26;4.88;;;1.98;;
48207;SDS011;33997;53.278;9.708;2023-08-17T00:32:52;5.90;;;1.83;;
48207;SDS011;33997;53.278;9.708;2023-08-17T00:35:17;5.68;;;1.88;;
48207;SDS011;33997;53.278;9.708;2023-08-17T00:37:43;6.68;;;1.77;;
48207;SDS011;33997;53.278;9.708;2023-08-17T00:40:08;9.65;;;2.08;;
48207;SDS011;33997;53.278;9.708;2023-08-17T00:42:34;10.18;;;2.28;;
48207;SDS011;33997;53.278;9.708;2023-08-17T00:45:00;6.82;;;1.88;;
48207;SDS011;33997;53.278;9.708;2023-08-17T00:47:25;5.60;;;1.90;;
48207;SDS011;33997;53.278;9.708;2023-08-17T00:49:51;4.65;;;1.90;;
48207;SDS011;33997;53.278;9.708;2023-08-17T00:52:17;4.65;;;2.00;;
48207;SDS011;33997;53.278;9.708;2023-08-17T00:54:42;5.65;;;2.00;;
48207;SDS011;33997;53.278;9.708;2023-08-17T00:57:08;8.70;;;1.95;;
48207;SDS011;33997;53.278;9.708;2023-08-17T00:59:34;5.38;;;2.05;;
48207;SDS011;33997;53.278;9.708;2023-08-17T01:02:00;6.05;;;2.03;;
48207;SDS011;33997;53.278;9.708;2023-08-17T01:04:26;7.55;;;2.40;;
48207;SDS011;33997;53.278;9.708;2023-08-17T01:06:52;4.38;;;1.67;;
48207;SDS011;33997;53.278;9.708;2023-08-17T01:09:17;5.85;;;1.90;;
48207;SDS011;33997;53.278;9.708;2023-08-17T01:14:37;6.28;;;2.08;;
48207;SDS011;33997;53.278;9.708;2023-08-17T01:17:18;6.32;;;2.10;;
48207;SDS011;33997;53.278;9.708;2023-08-17T01:19:49;4.70;;;2.10;;
48207;SDS011;33997;53.278;9.708;2023-08-17T01:22:17;3.15;;;2.08;;
48207;SDS011;33997;53.278;9.708;2023-08-17T01:24:45;6.40;;;2.20;;
48207;SDS011;33997;53.278;9.708;2023-08-17T01:27:11;5.22;;;2.05;;
48207;SDS011;33997;53.278;9.708;2023-08-17T01:29:36;5.63;;;2.03;;
48207;SDS011;33997;53.278;9.708;2023-08-17T01:34:55;5.28;;;1.80;;
48207;SDS011;33997;53.278;9.708;2023-08-17T01:37:26;6.88;;;1.90;;
48207;SDS011;33997;53.278;9.708;2023-08-17T01:39:54;6.15;;;2.05;;
48207;SDS011;33997;53.278;9.708;2023-08-17T01:42:21;4.90;;;1.83;;
48207;SDS011;33997;53.278;9.708;2023-08-17T01:44:48;11.90;;;2.00;;
48207;SDS011;33997;53.278;9.708;2023-08-17T01:47:14;6.45;;;1.77;;
48207;SDS011;33997;53.278;9.708;2023-08-17T01:49:39;7.43;;;2.03;;
48207;SDS011;33997;53.278;9.708;2023-08-17T01:52:05;8.60;;;2.20;;
48207;SDS011;33997;53.278;9.708;2023-08-17T01:54:30;3.53;;;1.88;;
48207;SDS011;33997;53.278;9.708;2023-08-17T01:56:56;5.63;;;2.28;;
48207;SDS011;33997;53.278;9.708;2023-08-17T01:59:21;6.53;;;2.80;;
48207;SDS011;33997;53.278;9.708;2023-08-17T02:01:47;7.50;;;2.30;;
48207;SDS011;33997;53.278;9.708;2023-08-17T02:04:12;7.00;;;2.22;;
48207;SDS011;33997;53.278;9.708;2023-08-17T02:06:38;6.05;;;1.83;;
48207;SDS011;33997;53.278;9.708;2023-08-17T02:09:04;12.00;;;2.15;;
48207;SDS011;33997;53.278;9.708;2023-08-17T02:11:29;8.75;;;2.20;;
48207;SDS011;33997;53.278;9.708;2023-08-17T02:13:55;6.63;;;2.20;;
48207;SDS011;33997;53.278;9.708;2023-08-17T02:16:20;9.13;;;2.13;;
48207;SDS011;33997;53.278;9.708;2023-08-17T02:18:46;7.85;;;2.00;;
48207;SDS011;33997;53.278;9.708;2023-08-17T02:21:11;7.78;;;2.42;;
48207;SDS011;33997;53.278;9.708;2023-08-17T02:23:36;8.02;;;2.15;;
48207;SDS011;33997;53.278;9.708;2023-08-17T02:26:02;7.65;;;2.03;;
48207;SDS011;33997;53.278;9.708;2023-08-17T02:28:27;9.85;;;2.08;;
48207;SDS011;33997;53.278;9.708;2023-08-17T02:30:56;7.80;;;2.35;;
48207;SDS011;33997;53.278;9.708;2023-08-17T02:33:23;8.70;;;2.15;;
48207;SDS011;33997;53.278;9.708;2023-08-17T02:35:49;11.52;;;2.95;;
48207;SDS011;33997;53.278;9.708;2023-08-17T02:38:15;3.63;;;2.25;;
48207;SDS011;33997;53.278;9.708;2023-08-17T02:40:40;6.35;;;1.92;;
48207;SDS011;33997;53.278;9.708;2023-08-17T02:43:06;6.45;;;2.40;;
48207;SDS011;33997;53.278;9.708;2023-08-17T02:45:33;4.65;;;2.10;;
48207;SDS011;33997;53.278;9.708;2023-08-17T02:47:59;8.48;;;2.30;;
48207;SDS011;33997;53.278;9.708;2023-08-17T02:50:24;7.45;;;2.38;;
48207;SDS011;33997;53.278;9.708;2023-08-17T02:52:50;7.72;;;2.08;;
48207;SDS011;33997;53.278;9.708;2023-08-17T02:55:15;8.05;;;2.55;;
48207;SDS011;33997;53.278;9.708;2023-08-17T02:57:41;8.57;;;2.30;;
48207;SDS011;33997;53.278;9.708;2023-08-17T03:00:06;7.03;;;2.10;;
48207;SDS011;33997;53.278;9.708;2023-08-17T03:02:32;5.15;;;1.83;;
48207;SDS011;33997;53.278;9.708;2023-08-17T03:04:57;5.93;;;2.25;;
48207;SDS011;33997;53.278;9.708;2023-08-17T03:07:23;5.15;;;2.10;;
48207;SDS011;33997;53.278;9.708;2023-08-17T03:09:48;7.47;;;1.92;;
48207;SDS011;33997;53.278;9.708;2023-08-17T03:12:14;8.68;;;2.22;;
48207;SDS011;33997;53.278;9.708;2023-08-17T03:14:39;6.78;;;1.70;;
48207;SDS011;33997;53.278;9.708;2023-08-17T03:17:05;5.55;;;1.95;;
48207;SDS011;33997;53.278;9.708;2023-08-17T03:19:30;6.28;;;2.00;;
48207;SDS011;33997;53.278;9.708;2023-08-17T03:21:56;6.40;;;2.10;;
48207;SDS011;33997;53.278;9.708;2023-08-17T03:24:21;6.15;;;2.35;;
48207;SDS011;33997;53.278;9.708;2023-08-17T03:26:47;4.22;;;1.75;;
48207;SDS011;33997;53.278;9.708;2023-08-17T03:29:13;8.02;;;1.98;;
48207;SDS011;33997;53.278;9.708;2023-08-17T03:31:38;5.30;;;1.95;;
48207;SDS011;33997;53.278;9.708;2023-08-17T03:34:04;5.78;;;1.80;;
48207;SDS011;33997;53.278;9.708;2023-08-17T03:36:29;5.65;;;1.80;;
48207;SDS011;33997;53.278;9.708;2023-08-17T03:38:55;4.22;;;1.42;;
48207;SDS011;33997;53.278;9.708;2023-08-17T03:41:21;6.82;;;2.17;;
48207;SDS011;33997;53.278;9.708;2023-08-17T03:43:48;4.57;;;1.65;;
48207;SDS011;33997;53.278;9.708;2023-08-17T03:46:14;7.18;;;1.90;;
48207;SDS011;33997;53.278;9.708;2023-08-17T03:48:39;7.72;;;1.80;;
48207;SDS011;33997;53.278;9.708;2023-08-17T03:51:05;10.63;;;2.13;;
48207;SDS011;33997;53.278;9.708;2023-08-17T03:53:30;9.77;;;2.47;;
48207;SDS011;33997;53.278;9.708;2023-08-17T03:55:56;11.65;;;3.50;;
48207;SDS011;33997;53.278;9.708;2023-08-17T03:58:21;12.77;;;4.47;;
48207;SDS011;33997;53.278;9.708;2023-08-17T04:00:50;13.90;;;4.95;;
48207;SDS011;33997;53.278;9.708;2023-08-17T04:03:16;20.35;;;6.20;;
48207;SDS011;33997;53.278;9.708;2023-08-17T04:05:42;17.88;;;6.35;;
48207;SDS011;33997;53.278;9.708;2023-08-17T04:08:08;16.38;;;6.18;;
48207;SDS011;33997;53.278;9.708;2023-08-17T04:10:33;14.07;;;5.38;;
48207;SDS011;33997;53.278;9.708;2023-08-17T04:12:59;13.40;;;5.50;;
48207;SDS011;33997;53.278;9.708;2023-08-17T04:15:24;10.52;;;2.38;;
48207;SDS011;33997;53.278;9.708;2023-08-17T04:17:50;10.65;;;2.28;;
48207;SDS011;33997;53.278;9.708;2023-08-17T04:20:15;4.10;;;1.60;;
48207;SDS011;33997;53.278;9.708;2023-08-17T04:22:41;5.78;;;1.50;;
48207;SDS011;33997;53.278;9.708;2023-08-17T04:25:06;8.45;;;2.58;;
48207;SDS011;33997;53.278;9.708;2023-08-17T04:27:32;5.03;;;1.60;;
48207;SDS011;33997;53.278;9.708;2023-08-17T04:29:58;7.72;;;1.80;;
48207;SDS011;33997;53.278;9.708;2023-08-17T04:32:24;7.93;;;1.88;;
48207;SDS011;33997;53.278;9.708;2023-08-17T04:34:50;8.20;;;1.77;;
48207;SDS011;33997;53.278;9.708;2023-08-17T04:37:15;7.18;;;1.90;;
48207;SDS011;33997;53.278;9.708;2023-08-17T04:39:41;4.57;;;1.70;;
48207;SDS011;33997;53.278;9.708;2023-08-17T04:42:08;6.05;;;1.60;;
48207;SDS011;33997;53.278;9.708;2023-08-17T04:44:34;7.65;;;1.52;;
48207;SDS011;33997;53.278;9.708;2023-08-17T04:46:59;4.85;;;1.52;;
48207;SDS011;33997;53.278;9.708;2023-08-17T04:49:25;7.93;;;1.60;;
48207;SDS011;33997;53.278;9.708;2023-08-17T04:51:51;6.43;;;1.92;;
48207;SDS011;33997;53.278;9.708;2023-08-17T04:54:16;5.35;;;1.67;;
48207;SDS011;33997;53.278;9.708;2023-08-17T04:56:42;6.90;;;1.77;;
48207;SDS011;33997;53.278;9.708;2023-08-17T04:59:08;5.35;;;1.67;;
48207;SDS011;33997;53.278;9.708;2023-08-17T05:01:34;5.18;;;1.52;;
48207;SDS011;33997;53.278;9.708;2023-08-17T05:04:00;5.55;;;1.38;;
48207;SDS011;33997;53.278;9.708;2023-08-17T05:06:27;7.97;;;1.58;;
48207;SDS011;33997;53.278;9.708;2023-08-17T05:08:53;4.07;;;1.63;;
48207;SDS011;33997;53.278;9.708;2023-08-17T05:11:19;6.13;;;1.63;;
48207;SDS011;33997;53.278;9.708;2023-08-17T05:13:44;11.23;;;1.88;;
48207;SDS011;33997;53.278;9.708;2023-08-17T05:16:10;7.70;;;2.00;;
48207;SDS011;33997;53.278;9.708;2023-08-17T05:18:35;9.07;;;2.00;;
48207;SDS011;33997;53.278;9.708;2023-08-17T05:21:01;8.60;;;2.05;;
48207;SDS011;33997;53.278;9.708;2023-08-17T05:23:26;6.65;;;1.98;;
48207;SDS011;33997;53.278;9.708;2023-08-17T05:25:52;7.10;;;2.40;;
48207;SDS011;33997;53.278;9.708;2023-08-17T05:28:17;6.03;;;2.03;;
48207;SDS011;33997;53.278;9.708;2023-08-17T05:30:43;4.60;;;1.90;;
48207;SDS011;33997;53.278;9.708;2023-08-17T05:33:08;10.55;;;2.85;;
48207;SDS011;33997;53.278;9.708;2023-08-17T05:35:34;9.18;;;2.70;;
48207;SDS011;33997;53.278;9.708;2023-08-17T05:37:59;6.85;;;2.38;;
48207;SDS011;33997;53.278;9.708;2023-08-17T05:40:25;9.98;;;3.20;;
48207;SDS011;33997;53.278;9.708;2023-08-17T05:42:50;6.60;;;2.45;;
48207;SDS011;33997;53.278;9.708;2023-08-17T05:45:16;7.38;;;3.08;;
48207;SDS011;33997;53.278;9.708;2023-08-17T05:47:42;7.00;;;3.17;;
48207;SDS011;33997;53.278;9.708;2023-08-17T05:50:07;11.82;;;3.45;;
48207;SDS011;33997;53.278;9.708;2023-08-17T05:52:33;10.38;;;3.80;;
48207;SDS011;33997;53.278;9.708;2023-08-17T05:54:58;11.00;;;3.38;;
48207;SDS011;33997;53.278;9.708;2023-08-17T05:57:24;10.93;;;3.35;;
48207;SDS011;33997;53.278;9.708;2023-08-17T05:59:49;9.27;;;3.85;;
48207;SDS011;33997;53.278;9.708;2023-08-17T06:02:15;11.93;;;4.15;;
48207;SDS011;33997;53.278;9.708;2023-08-17T06:04:40;11.85;;;3.90;;
48207;SDS011;33997;53.278;9.708;2023-08-17T06:07:06;12.32;;;4.78;;
48207;SDS011;33997;53.278;9.708;2023-08-17T06:09:32;8.50;;;3.92;;
48207;SDS011;33997;53.278;9.708;2023-08-17T06:11:57;9.68;;;3.78;;
48207;SDS011;33997;53.278;9.708;2023-08-17T06:14:22;10.55;;;3.83;;
48207;SDS011;33997;53.278;9.708;2023-08-17T06:16:48;13.77;;;3.45;;
48207;SDS011;33997;53.278;9.708;2023-08-17T06:19:13;11.93;;;4.07;;
48207;SDS011;33997;53.278;9.708;2023-08-17T06:21:39;6.32;;;3.50;;
48207;SDS011;33997;53.278;9.708;2023-08-17T06:24:04;8.68;;;3.72;;
48207;SDS011;33997;53.278;9.708;2023-08-17T06:26:30;8.57;;;3.30;;
48207;SDS011;33997;53.278;9.708;2023-08-17T06:28:56;9.93;;;3.50;;
48207;SDS011;33997;53.278;9.708;2023-08-17T06:31:22;10.50;;;3.60;;
48207;SDS011;33997;53.278;9.708;2023-08-17T06:33:52;7.97;;;3.53;;
48207;SDS011;33997;53.278;9.708;2023-08-17T06:36:18;6.32;;;3.35;;
48207;SDS011;33997;53.278;9.708;2023-08-17T06:38:43;10.50;;;3.88;;
48207;SDS011;33997;53.278;9.708;2023-08-17T06:41:09;10.20;;;4.50;;
48207;SDS011;33997;53.278;9.708;2023-08-17T06:43:34;11.05;;;4.03;;
48207;SDS011;33997;53.278;9.708;2023-08-17T06:45:59;10.50;;;4.40;;
48207;SDS011;33997;53.278;9.708;2023-08-17T06:48:26;10.15;;;3.70;;
48207;SDS011;33997;53.278;9.708;2023-08-17T06:50:52;11.63;;;4.07;;
48207;SDS011;33997;53.278;9.708;2023-08-17T06:53:18;15.10;;;3.75;;
48207;SDS011;33997;53.278;9.708;2023-08-17T06:55:43;7.45;;;3.50;;
48207;SDS011;33997;53.278;9.708;2023-08-17T06:58:09;10.65;;;4.07;;
48207;SDS011;33997;53.278;9.708;2023-08-17T07:00:34;8.15;;;4.10;;
48207;SDS011;33997;53.278;9.708;2023-08-17T07:03:00;11.98;;;3.80;;
48207;SDS011;33997;53.278;9.708;2023-08-17T07:05:26;8.18;;;3.67;;
48207;SDS011;33997;53.278;9.708;2023-08-17T07:07:52;9.00;;;3.58;;
48207;SDS011;33997;53.278;9.708;2023-08-17T07:10:18;8.10;;;3.47;;
48207;SDS011;33997;53.278;9.708;2023-08-17T07:12:43;6.85;;;3.20;;
48207;SDS011;33997;53.278;9.708;2023-08-17T07:15:09;5.63;;;2.75;;
48207;SDS011;33997;53.278;9.708;2023-08-17T07:17:35;5.45;;;2.40;;
48207;SDS011;33997;53.278;9.708;2023-08-17T07:20:01;6.50;;;2.80;;
48207;SDS011;33997;53.278;9.708;2023-08-17T07:22:27;7.47;;;2.70;;
48207;SDS011;33997;53.278;9.708;2023-08-17T07:24:53;7.68;;;2.58;;
48207;SDS011;33997;53.278;9.708;2023-08-17T07:27:18;3.90;;;2.20;;
48207;SDS011;33997;53.278;9.708;2023-08-17T07:29:44;2.58;;;1.90;;
48207;SDS011;33997;53.278;9.708;2023-08-17T07:32:09;5.10;;;1.92;;
48207;SDS011;33997;53.278;9.708;2023-08-17T07:34:35;3.97;;;1.92;;
48207;SDS011;33997;53.278;9.708;2023-08-17T07:37:01;3.42;;;1.80;;
48207;SDS011;33997;53.278;9.708;2023-08-17T07:39:28;4.20;;;1.90;;
48207;SDS011;33997;53.278;9.708;2023-08-17T07:41:54;3.35;;;1.88;;
48207;SDS011;33997;53.278;9.708;2023-08-17T07:44:19;4.15;;;2.08;;
48207;SDS011;33997;53.278;9.708;2023-08-17T07:46:45;3.58;;;2.10;;
48207;SDS011;33997;53.278;9.708;2023-08-17T07:49:10;4.38;;;1.92;;
48207;SDS011;33997;53.278;9.708;2023-08-17T07:51:36;5.90;;;2.10;;
48207;SDS011;33997;53.278;9.708;2023-08-17T07:54:01;5.00;;;1.98;;
48207;SDS011;33997;53.278;9.708;2023-08-17T07:56:27;4.18;;;1.65;;
48207;SDS011;33997;53.278;9.708;2023-08-17T07:58:53;4.10;;;1.60;;
48207;SDS011;33997;53.278;9.708;2023-08-17T08:01:19;4.25;;;1.98;;
48207;SDS011;33997;53.278;9.708;2023-08-17T08:03:44;3.10;;;1.80;;
48207;SDS011;33997;53.278;9.708;2023-08-17T08:06:10;3.25;;;1.65;;
48207;SDS011;33997;53.278;9.708;2023-08-17T08:08:35;6.47;;;1.70;;
48207;SDS011;33997;53.278;9.708;2023-08-17T08:11:01;4.88;;;2.03;;
48207;SDS011;33997;53.278;9.708;2023-08-17T08:13:26;3.78;;;2.03;;
48207;SDS011;33997;53.278;9.708;2023-08-17T08:15:52;3.20;;;1.90;;
48207;SDS011;33997;53.278;9.708;2023-08-17T08:18:17;3.58;;;2.00;;
48207;SDS011;33997;53.278;9.708;2023-08-17T08:20:42;2.80;;;1.67;;
48207;SDS011;33997;53.278;9.708;2023-08-17T08:23:08;2.40;;;1.55;;
48207;SDS011;33997;53.278;9.708;2023-08-17T08:25:34;2.67;;;1.65;;
48207;SDS011;33997;53.278;9.708;2023-08-17T08:27:59;3.80;;;1.80;;
48207;SDS011;33997;53.278;9.708;2023-08-17T08:30:25;3.05;;;2.00;;
48207;SDS011;33997;53.278;9.708;2023-08-17T08:32:51;4.25;;;2.42;;
48207;SDS011;33997;53.278;9.708;2023-08-17T08:35:16;9.75;;;2.60;;
48207;SDS011;33997;53.278;9.708;2023-08-17T08:37:42;9.75;;;2.50;;
48207;SDS011;33997;53.278;9.708;2023-08-17T08:40:10;6.70;;;2.30;;
48207;SDS011;33997;53.278;9.708;2023-08-17T08:42:39;5.63;;;2.35;;
48207;SDS011;33997;53.278;9.708;2023-08-17T08:45:06;6.15;;;2.55;;
48207;SDS011;33997;53.278;9.708;2023-08-17T08:47:31;5.13;;;2.33;;
48207;SDS011;33997;53.278;9.708;2023-08-17T08:50:01;3.78;;;2.25;;
48207;SDS011;33997;53.278;9.708;2023-08-17T08:52:32;3.38;;;2.13;;
48207;SDS011;33997;53.278;9.708;2023-08-17T08:57:36;4.90;;;1.90;;
48207;SDS011;33997;53.278;9.708;2023-08-17T09:00:02;3.60;;;1.85;;
48207;SDS011;33997;53.278;9.708;2023-08-17T09:02:28;4.72;;;1.85;;
48207;SDS011;33997;53.278;9.708;2023-08-17T09:04:55;3.03;;;2.10;;
48207;SDS011;33997;53.278;9.708;2023-08-17T09:07:22;3.47;;;1.98;;
48207;SDS011;33997;53.278;9.708;2023-08-17T09:09:48;5.45;;;2.60;;
48207;SDS011;33997;53.278;9.708;2023-08-17T09:12:13;5.90;;;2.33;;
48207;SDS011;33997;53.278;9.708;2023-08-17T09:14:39;4.45;;;2.25;;
48207;SDS011;33997;53.278;9.708;2023-08-17T09:17:06;5.65;;;2.38;;
48207;SDS011;33997;53.278;9.708;2023-08-17T09:19:32;7.32;;;2.70;;
48207;SDS011;33997;53.278;9.708;2023-08-17T09:21:58;6.93;;;2.53;;
48207;SDS011;33997;53.278;9.708;2023-08-17T09:24:23;6.10;;;2.63;;
48207;SDS011;33997;53.278;9.708;2023-08-17T09:26:49;5.03;;;2.97;;
48207;SDS011;33997;53.278;9.708;2023-08-17T09:29:19;5.15;;;2.80;;
48207;SDS011;33997;53.278;9.708;2023-08-17T09:31:46;5.78;;;2.58;;
48207;SDS011;33997;53.278;9.708;2023-08-17T09:34:13;4.80;;;2.78;;
48207;SDS011;33997;53.278;9.708;2023-08-17T09:36:40;9.57;;;3.05;;
48207;SDS011;33997;53.278;9.708;2023-08-17T09:39:06;7.60;;;2.88;;
48207;SDS011;33997;53.278;9.708;2023-08-17T09:41:37;5.32;;;2.70;;
48207;SDS011;33997;53.278;9.708;2023-08-17T09:44:06;4.85;;;2.42;;
48207;SDS011;33997;53.278;9.708;2023-08-17T09:46:32;9.38;;;2.83;;
48207;SDS011;33997;53.278;9.708;2023-08-17T09:48:57;8.57;;;2.78;;
48207;SDS011;33997;53.278;9.708;2023-08-17T09:51:23;4.35;;;2.22;;
48207;SDS011;33997;53.278;9.708;2023-08-17T09:53:52;5.65;;;2.35;;
48207;SDS011;33997;53.278;9.708;2023-08-17T09:56:19;6.15;;;2.50;;
48207;SDS011;33997;53.278;9.708;2023-08-17T09:58:49;4.72;;;1.90;;
48207;SDS011;33997;53.278;9.708;2023-08-17T10:01:15;4.55;;;2.05;;
48207;SDS011;33997;53.278;9.708;2023-08-17T10:03:43;3.35;;;1.50;;
48207;SDS011;33997;53.278;9.708;2023-08-17T10:06:15;4.45;;;1.70;;
48207;SDS011;33997;53.278;9.708;2023-08-17T10:08:49;6.30;;;1.70;;
48207;SDS011;33997;53.278;9.708;2023-08-17T10:11:18;5.68;;;1.98;;
48207;SDS011;33997;53.278;9.708;2023-08-17T10:13:59;5.35;;;1.73;;
48207;SDS011;33997;53.278;9.708;2023-08-17T10:16:33;7.22;;;1.73;;
48207;SDS011;33997;53.278;9.708;2023-08-17T10:19:13;7.43;;;1.83;;
48207;SDS011;33997;53.278;9.708;2023-08-17T10:21:51;4.15;;;2.00;;
48207;SDS011;33997;53.278;9.708;2023-08-17T10:24:23;3.08;;;1.70;;
48207;SDS011;33997;53.278;9.708;2023-08-17T10:26:49;2.75;;;1.85;;
48207;SDS011;33997;53.278;9.708;2023-08-17T10:29:15;5.03;;;1.70;;
48207;SDS011;33997;53.278;9.708;2023-08-17T10:31:42;2.95;;;1.65;;
48207;SDS011;33997;53.278;9.708;2023-08-17T10:36:38;5.38;;;1.92;;
48207;SDS011;33997;53.278;9.708;2023-08-17T10:39:21;3.05;;;1.70;;
48207;SDS011;33997;53.278;9.708;2023-08-17T10:41:48;4.10;;;2.03;;
48207;SDS011;33997;53.278;9.708;2023-08-17T10:44:14;5.13;;;1.98;;
48207;SDS011;33997;53.278;9.708;2023-08-17T10:46:43;3.53;;;2.28;;
48207;SDS011;33997;53.278;9.708;2023-08-17T10:49:26;4.25;;;1.88;;
48207;SDS011;33997;53.278;9.708;2023-08-17T10:52:04;3.45;;;2.40;;
48207;SDS011;33997;53.278;9.708;2023-08-17T10:54:38;4.55;;;2.10;;
48207;SDS011;33997;53.278;9.708;2023-08-17T11:02:57;2.58;;;1.55;;
48207;SDS011;33997;53.278;9.708;2023-08-17T11:08:05;4.43;;;1.40;;
48207;SDS011;33997;53.278;9.708;2023-08-17T11:13:24;3.13;;;1.52;;
48207;SDS011;33997;53.278;9.708;2023-08-17T11:15:52;2.97;;;1.50;;
48207;SDS011;33997;53.278;9.708;2023-08-17T11:18:17;5.43;;;1.77;;
48207;SDS011;33997;53.278;9.708;2023-08-17T11:20:43;2.55;;;1.73;;
48207;SDS011;33997;53.278;9.708;2023-08-17T11:23:09;3.20;;;1.33;;
48207;SDS011;33997;53.278;9.708;2023-08-17T11:25:35;3.63;;;1.45;;
48207;SDS011;33997;53.278;9.708;2023-08-17T11:28:02;3.55;;;1.60;;
48207;SDS011;33997;53.278;9.708;2023-08-17T11:30:30;1.65;;;1.30;;
48207;SDS011;33997;53.278;9.708;2023-08-17T11:32:58;3.55;;;1.38;;
48207;SDS011;33997;53.278;9.708;2023-08-17T11:35:24;2.67;;;1.40;;
48207;SDS011;33997;53.278;9.708;2023-08-17T11:37:50;2.25;;;1.15;;
48207;SDS011;33997;53.278;9.708;2023-08-17T11:40:15;2.15;;;1.38;;
48207;SDS011;33997;53.278;9.708;2023-08-17T11:42:41;2.97;;;1.35;;
48207;SDS011;33997;53.278;9.708;2023-08-17T11:45:07;3.70;;;1.25;;
48207;SDS011;33997;53.278;9.708;2023-08-17T11:47:39;4.43;;;1.20;;
48207;SDS011;33997;53.278;9.708;2023-08-17T11:50:06;6.93;;;1.40;;
48207;SDS011;33997;53.278;9.708;2023-08-17T11:52:34;5.68;;;1.30;;
48207;SDS011;33997;53.278;9.708;2023-08-17T11:55:01;5.35;;;1.50;;
48207;SDS011;33997;53.278;9.708;2023-08-17T11:57:29;2.42;;;1.33;;
48207;SDS011;33997;53.278;9.708;2023-08-17T11:59:55;8.63;;;1.58;;
48207;SDS011;33997;53.278;9.708;2023-08-17T12:02:23;5.47;;;1.52;;
48207;SDS011;33997;53.278;9.708;2023-08-17T12:04:49;2.03;;;1.20;;
48207;SDS011;33997;53.278;9.708;2023-08-17T12:07:15;4.47;;;1.40;;
48207;SDS011;33997;53.278;9.708;2023-08-17T12:09:44;1.38;;;0.90;;
48207;SDS011;33997;53.278;9.708;2023-08-17T12:12:10;1.88;;;1.10;;
48207;SDS011;33997;53.278;9.708;2023-08-17T12:14:37;1.98;;;1.35;;
48207;SDS011;33997;53.278;9.708;2023-08-17T12:17:06;2.05;;;1.00;;
48207;SDS011;33997;53.278;9.708;2023-08-17T12:19:31;3.60;;;1.20;;
48207;SDS011;33997;53.278;9.708;2023-08-17T12:21:57;1.52;;;1.20;;
48207;SDS011;33997;53.278;9.708;2023-08-17T12:24:25;1.33;;;1.00;;
48207;SDS011;33997;53.278;9.708;2023-08-17T12:26:51;1.83;;;0.95;;
48207;SDS011;33997;53.278;9.708;2023-08-17T12:29:17;1.50;;;0.80;;
48207;SDS011;33997;53.278;9.708;2023-08-17T12:31:42;0.68;;;0.60;;
48207;SDS011;33997;53.278;9.708;2023-08-17T12:34:09;3.85;;;1.00;;
48207;SDS011;33997;53.278;9.708;2023-08-17T12:36:35;1.42;;;0.95;;
48207;SDS011;33997;53.278;9.708;2023-08-17T12:39:02;1.70;;;0.90;;
48207;SDS011;33997;53.278;9.708;2023-08-17T12:41:28;2.88;;;1.00;;
48207;SDS011;33997;53.278;9.708;2023-08-17T12:43:54;1.67;;;0.90;;
48207;SDS011;33997;53.278;9.708;2023-08-17T12:46:19;1.33;;;0.98;;
48207;SDS011;33997;53.278;9.708;2023-08-17T12:48:45;1.67;;;0.90;;
48207;SDS011;33997;53.278;9.708;2023-08-17T12:51:11;2.15;;;1.20;;
48207;SDS011;33997;53.278;9.708;2023-08-17T12:53:36;1.13;;;0.75;;
48207;SDS011;33997;53.278;9.708;2023-08-17T12:56:02;1.13;;;0.80;;
48207;SDS011;33997;53.278;9.708;2023-08-17T12:58:29;2.25;;;0.85;;
48207;SDS011;33997;53.278;9.708;2023-08-17T13:00:54;2.72;;;0.90;;
48207;SDS011;33997;53.278;9.708;2023-08-17T13:03:20;1.70;;;1.08;;
48207;SDS011;33997;53.278;9.708;2023-08-17T13:05:45;2.35;;;0.93;;
48207;SDS011;33997;53.278;9.708;2023-08-17T13:08:11;1.88;;;1.00;;
48207;SDS011;33997;53.278;9.708;2023-08-17T13:10:36;0.85;;;0.80;;
48207;SDS011;33997;53.278;9.708;2023-08-17T13:13:02;2.60;;;0.90;;
48207;SDS011;33997;53.278;9.708;2023-08-17T13:15:28;1.23;;;1.00;;
48207;SDS011;33997;53.278;9.708;2023-08-17T13:17:54;1.27;;;0.90;;
48207;SDS011;33997;53.278;9.708;2023-08-17T13:20:20;2.58;;;1.42;;
48207;SDS011;33997;53.278;9.708;2023-08-17T13:22:46;2.53;;;1.10;;
48207;SDS011;33997;53.278;9.708;2023-08-17T13:25:11;2.88;;;1.27;;
48207;SDS011;33997;53.278;9.708;2023-08-17T13:27:37;1.92;;;1.00;;
48207;SDS011;33997;53.278;9.708;2023-08-17T13:30:02;4.03;;;1.00;;
48207;SDS011;33997;53.278;9.708;2023-08-17T13:32:28;4.03;;;1.00;;
48207;SDS011;33997;53.278;9.708;2023-08-17T13:34:54;4.32;;;1.10;;
48207;SDS011;33997;53.278;9.708;2023-08-17T13:37:19;1.83;;;0.82;;
48207;SDS011;33997;53.278;9.708;2023-08-17T13:39:45;2.30;;;1.10;;
48207;SDS011;33997;53.278;9.708;2023-08-17T13:42:11;1.27;;;1.08;;
48207;SDS011;33997;53.278;9.708;2023-08-17T13:44:37;3.83;;;0.93;;
48207;SDS011;33997;53.278;9.708;2023-08-17T13:47:03;2.45;;;1.02;;
48207;SDS011;33997;53.278;9.708;2023-08-17T13:49:29;3.22;;;1.13;;
48207;SDS011;33997;53.278;9.708;2023-08-17T13:51:54;3.55;;;1.33;;
48207;SDS011;33997;53.278;9.708;2023-08-17T13:54:21;2.08;;;0.82;;
48207;SDS011;33997;53.278;9.708;2023-08-17T13:56:50;1.35;;;0.80;;
48207;SDS011;33997;53.278;9.708;2023-08-17T13:59:16;1.23;;;0.80;;
48207;SDS011;33997;53.278;9.708;2023-08-17T14:01:41;2.35;;;0.95;;
48207;SDS011;33997;53.278;9.708;2023-08-17T14:04:07;3.70;;;0.90;;
48207;SDS011;33997;53.278;9.708;2023-08-17T14:06:39;1.80;;;1.02;;
48207;SDS011;33997;53.278;9.708;2023-08-17T14:09:05;5.32;;;1.17;;
48207;SDS011;33997;53.278;9.708;2023-08-17T14:11:31;1.67;;;1.00;;
48207;SDS011;33997;53.278;9.708;2023-08-17T14:13:57;1.40;;;1.10;;
48207;SDS011;33997;53.278;9.708;2023-08-17T14:16:22;2.53;;;1.20;;
48207;SDS011;33997;53.278;9.708;2023-08-17T14:18:48;1.45;;;1.08;;
48207;SDS011;33997;53.278;9.708;2023-08-17T14:21:13;2.00;;;0.98;;
48207;SDS011;33997;53.278;9.708;2023-08-17T14:23:39;5.45;;;1.17;;
48207;SDS011;33997;53.278;9.708;2023-08-17T14:26:05;3.75;;;1.38;;
48207;SDS011;33997;53.278;9.708;2023-08-17T14:28:30;2.42;;;0.90;;
48207;SDS011;33997;53.278;9.708;2023-08-17T14:30:56;2.58;;;1.08;;
48207;SDS011;33997;53.278;9.708;2023-08-17T14:33:21;1.75;;;1.10;;
48207;SDS011;33997;53.278;9.708;2023-08-17T14:35:47;4.88;;;1.30;;
48207;SDS011;33997;53.278;9.708;2023-08-17T14:38:12;3.60;;;1.10;;
48207;SDS011;33997;53.278;9.708;2023-08-17T14:40:41;3.53;;;1.30;;
48207;SDS011;33997;53.278;9.708;2023-08-17T14:43:08;5.00;;;1.20;;
48207;SDS011;33997;53.278;9.708;2023-08-17T14:45:35;6.07;;;1.27;;
48207;SDS011;33997;53.278;9.708;2023-08-17T14:48:00;2.50;;;1.40;;
48207;SDS011;33997;53.278;9.708;2023-08-17T14:50:27;4.45;;;1.40;;
48207;SDS011;33997;53.278;9.708;2023-08-17T14:52:52;2.88;;;1.25;;
48207;SDS011;33997;53.278;9.708;2023-08-17T14:55:18;4.38;;;1.30;;
48207;SDS011;33997;53.278;9.708;2023-08-17T14:57:43;2.75;;;1.38;;
48207;SDS011;33997;53.278;9.708;2023-08-17T15:00:09;5.55;;;1.90;;
48207;SDS011;33997;53.278;9.708;2023-08-17T15:02:35;3.58;;;1.42;;